sensor_id;sensor_type;location;lat;lon;timestamp;temperature;humidity
68235;DHT22;55052;52.056;5.296;2023-04-21T00:00:05;10.40;76.30
68235;DHT22;55052;52.056;5.296;2023-04-21T00:02:35;10.40;76.40
68235;DHT22;55052;52.056;5.296;2023-04-21T00:05:07;10.40;76.60
68235;DHT22;55052;52.056;5.296;2023-04-21T00:07:36;10.40;76.80
68235;DHT22;55052;52.056;5.296;2023-04-21T00:10:05;10.40;77.20
68235;DHT22;55052;52.056;5.296;2023-04-21T00:12:33;10.40;77.00
68235;DHT22;55052;52.056;5.296;2023-04-21T00:15:00;10.40;77.10
68235;DHT22;55052;52.056;5.296;2023-04-21T00:17:27;10.40;77.30
68235;DHT22;55052;52.056;5.296;2023-04-21T00:19:54;10.40;77.40
68235;DHT22;55052;52.056;5.296;2023-04-21T00:22:21;10.40;77.60
68235;DHT22;55052;52.056;5.296;2023-04-21T00:24:48;10.40;77.70
68235;DHT22;55052;52.056;5.296;2023-04-21T00:27:15;10.40;77.80
68235;DHT22;55052;52.056;5.296;2023-04-21T00:29:42;10.40;77.90
68235;DHT22;55052;52.056;5.296;2023-04-21T00:32:10;10.40;78.70
68235;DHT22;55052;52.056;5.296;2023-04-21T00:34:37;10.40;78.00
68235;DHT22;55052;52.056;5.296;2023-04-21T00:37:04;10.40;78.10
68235;DHT22;55052;52.056;5.296;2023-04-21T00:39:31;10.40;78.10
68235;DHT22;55052;52.056;5.296;2023-04-21T00:41:57;10.40;78.30
68235;DHT22;55052;52.056;5.296;2023-04-21T00:44:24;10.30;78.40
68235;DHT22;55052;52.056;5.296;2023-04-21T00:46:51;10.30;78.50
68235;DHT22;55052;52.056;5.296;2023-04-21T00:49:18;10.40;78.60
68235;DHT22;55052;52.056;5.296;2023-04-21T00:51:45;10.30;78.70
68235;DHT22;55052;52.056;5.296;2023-04-21T00:54:12;10.30;78.90
68235;DHT22;55052;52.056;5.296;2023-04-21T00:56:39;10.30;79.00
68235;DHT22;55052;52.056;5.296;2023-04-21T00:59:06;10.30;79.10
68235;DHT22;55052;52.056;5.296;2023-04-21T01:01:33;10.30;80.10
68235;DHT22;55052;52.056;5.296;2023-04-21T01:04:03;10.30;79.40
68235;DHT22;55052;52.056;5.296;2023-04-21T01:06:31;10.30;79.60
68235;DHT22;55052;52.056;5.296;2023-04-21T01:09:00;10.30;79.70
68235;DHT22;55052;52.056;5.296;2023-04-21T01:11:27;10.30;79.90
68235;DHT22;55052;52.056;5.296;2023-04-21T01:13:54;10.20;80.00
68235;DHT22;55052;52.056;5.296;2023-04-21T01:16:22;10.20;80.10
68235;DHT22;55052;52.056;5.296;2023-04-21T01:18:50;10.20;80.30
68235;DHT22;55052;52.056;5.296;2023-04-21T01:21:20;10.20;80.40
68235;DHT22;55052;52.056;5.296;2023-04-21T01:23:47;10.20;80.50
68235;DHT22;55052;52.056;5.296;2023-04-21T01:26:23;10.20;80.70
68235;DHT22;55052;52.056;5.296;2023-04-21T01:28:50;10.20;80.80
68235;DHT22;55052;52.056;5.296;2023-04-21T01:31:17;10.20;80.90
68235;DHT22;55052;52.056;5.296;2023-04-21T01:33:44;10.20;81.00
68235;DHT22;55052;52.056;5.296;2023-04-21T01:36:11;10.20;81.20
68235;DHT22;55052;52.056;5.296;2023-04-21T01:38:39;10.20;81.30
68235;DHT22;55052;52.056;5.296;2023-04-21T01:41:07;10.20;81.40
68235;DHT22;55052;52.056;5.296;2023-04-21T01:43:34;10.20;81.60
68235;DHT22;55052;52.056;5.296;2023-04-21T01:46:03;10.20;81.60
68235;DHT22;55052;52.056;5.296;2023-04-21T01:48:30;10.20;81.60
68235;DHT22;55052;52.056;5.296;2023-04-21T01:50:57;10.20;81.60
68235;DHT22;55052;52.056;5.296;2023-04-21T01:53:24;10.20;81.70
68235;DHT22;55052;52.056;5.296;2023-04-21T01:55:52;10.20;81.70
68235;DHT22;55052;52.056;5.296;2023-04-21T01:58:20;10.20;81.90
68235;DHT22;55052;52.056;5.296;2023-04-21T02:00:47;10.20;81.90
68235;DHT22;55052;52.056;5.296;2023-04-21T02:03:14;10.20;82.00
68235;DHT22;55052;52.056;5.296;2023-04-21T02:05:41;10.20;82.00
68235;DHT22;55052;52.056;5.296;2023-04-21T02:08:08;10.20;82.10
68235;DHT22;55052;52.056;5.296;2023-04-21T02:10:34;10.20;82.10
68235;DHT22;55052;52.056;5.296;2023-04-21T02:13:02;10.20;83.00
68235;DHT22;55052;52.056;5.296;2023-04-21T02:15:29;10.20;82.20
68235;DHT22;55052;52.056;5.296;2023-04-21T02:17:55;10.20;82.30
68235;DHT22;55052;52.056;5.296;2023-04-21T02:20:22;10.20;82.30
68235;DHT22;55052;52.056;5.296;2023-04-21T02:22:49;10.20;82.30
68235;DHT22;55052;52.056;5.296;2023-04-21T02:25:16;10.20;82.30
68235;DHT22;55052;52.056;5.296;2023-04-21T02:27:43;10.20;82.30
68235;DHT22;55052;52.056;5.296;2023-04-21T02:30:10;10.20;82.30
68235;DHT22;55052;52.056;5.296;2023-04-21T02:32:37;10.20;82.30
68235;DHT22;55052;52.056;5.296;2023-04-21T02:35:04;10.20;82.40
68235;DHT22;55052;52.056;5.296;2023-04-21T02:37:31;10.20;82.40
68235;DHT22;55052;52.056;5.296;2023-04-21T02:39:58;10.20;82.40
68235;DHT22;55052;52.056;5.296;2023-04-21T02:42:25;10.20;82.50
68235;DHT22;55052;52.056;5.296;2023-04-21T02:44:51;10.20;82.60
68235;DHT22;55052;52.056;5.296;2023-04-21T02:47:18;10.20;82.80
68235;DHT22;55052;52.056;5.296;2023-04-21T02:49:45;10.20;82.90
68235;DHT22;55052;52.056;5.296;2023-04-21T02:52:12;10.20;83.00
68235;DHT22;55052;52.056;5.296;2023-04-21T02:54:39;10.20;83.10
68235;DHT22;55052;52.056;5.296;2023-04-21T02:57:06;10.20;83.20
68235;DHT22;55052;52.056;5.296;2023-04-21T02:59:33;10.20;83.30
68235;DHT22;55052;52.056;5.296;2023-04-21T03:02:00;10.20;83.40
68235;DHT22;55052;52.056;5.296;2023-04-21T03:04:26;10.20;83.50
68235;DHT22;55052;52.056;5.296;2023-04-21T03:06:54;10.20;83.50
68235;DHT22;55052;52.056;5.296;2023-04-21T03:09:21;10.20;83.50
68235;DHT22;55052;52.056;5.296;2023-04-21T03:11:48;10.20;83.60
68235;DHT22;55052;52.056;5.296;2023-04-21T03:14:14;10.20;83.70
68235;DHT22;55052;52.056;5.296;2023-04-21T03:16:41;10.20;83.70
68235;DHT22;55052;52.056;5.296;2023-04-21T03:19:08;10.20;83.80
68235;DHT22;55052;52.056;5.296;2023-04-21T03:21:36;10.20;83.90
68235;DHT22;55052;52.056;5.296;2023-04-21T03:24:05;10.20;84.00
68235;DHT22;55052;52.056;5.296;2023-04-21T03:26:33;10.20;84.00
68235;DHT22;55052;52.056;5.296;2023-04-21T03:28:59;10.20;84.10
68235;DHT22;55052;52.056;5.296;2023-04-21T03:31:26;10.20;84.20
68235;DHT22;55052;52.056;5.296;2023-04-21T03:33:53;10.20;84.30
68235;DHT22;55052;52.056;5.296;2023-04-21T03:36:20;10.20;84.40
68235;DHT22;55052;52.056;5.296;2023-04-21T03:38:47;10.20;84.50
68235;DHT22;55052;52.056;5.296;2023-04-21T03:41:14;10.20;84.60
68235;DHT22;55052;52.056;5.296;2023-04-21T03:43:41;10.20;84.70
68235;DHT22;55052;52.056;5.296;2023-04-21T03:46:16;10.20;84.90
68235;DHT22;55052;52.056;5.296;2023-04-21T03:48:44;10.20;85.10
68235;DHT22;55052;52.056;5.296;2023-04-21T03:51:11;10.20;85.10
68235;DHT22;55052;52.056;5.296;2023-04-21T03:53:38;10.20;85.20
68235;DHT22;55052;52.056;5.296;2023-04-21T03:56:05;10.20;85.30
68235;DHT22;55052;52.056;5.296;2023-04-21T03:58:32;10.20;85.40
68235;DHT22;55052;52.056;5.296;2023-04-21T04:00:59;10.20;85.50
68235;DHT22;55052;52.056;5.296;2023-04-21T04:03:26;10.20;85.60
68235;DHT22;55052;52.056;5.296;2023-04-21T04:05:53;10.20;85.80
68235;DHT22;55052;52.056;5.296;2023-04-21T04:08:20;10.20;85.90
68235;DHT22;55052;52.056;5.296;2023-04-21T04:10:47;10.20;86.10
68235;DHT22;55052;52.056;5.296;2023-04-21T04:13:14;10.20;86.10
68235;DHT22;55052;52.056;5.296;2023-04-21T04:15:41;10.20;86.20
68235;DHT22;55052;52.056;5.296;2023-04-21T04:18:08;10.20;86.30
68235;DHT22;55052;52.056;5.296;2023-04-21T04:20:35;10.20;86.40
68235;DHT22;55052;52.056;5.296;2023-04-21T04:23:02;10.20;86.60
68235;DHT22;55052;52.056;5.296;2023-04-21T04:25:29;10.20;86.70
68235;DHT22;55052;52.056;5.296;2023-04-21T04:27:56;10.20;86.80
68235;DHT22;55052;52.056;5.296;2023-04-21T04:30:23;10.20;86.90
68235;DHT22;55052;52.056;5.296;2023-04-21T04:32:53;10.20;87.00
68235;DHT22;55052;52.056;5.296;2023-04-21T04:35:21;10.20;87.10
68235;DHT22;55052;52.056;5.296;2023-04-21T04:37:48;10.20;87.10
68235;DHT22;55052;52.056;5.296;2023-04-21T04:40:15;10.10;87.20
68235;DHT22;55052;52.056;5.296;2023-04-21T04:42:42;10.10;87.40
68235;DHT22;55052;52.056;5.296;2023-04-21T04:45:11;10.10;87.50
68235;DHT22;55052;52.056;5.296;2023-04-21T04:47:39;10.10;87.60
68235;DHT22;55052;52.056;5.296;2023-04-21T04:50:06;10.10;87.70
68235;DHT22;55052;52.056;5.296;2023-04-21T04:52:33;10.10;87.80
68235;DHT22;55052;52.056;5.296;2023-04-21T04:55:01;10.10;87.80
68235;DHT22;55052;52.056;5.296;2023-04-21T04:57:27;10.10;87.90
68235;DHT22;55052;52.056;5.296;2023-04-21T04:59:55;10.10;88.00
68235;DHT22;55052;52.056;5.296;2023-04-21T05:02:22;10.10;88.00
68235;DHT22;55052;52.056;5.296;2023-04-21T05:04:50;10.10;88.00
68235;DHT22;55052;52.056;5.296;2023-04-21T05:07:17;10.20;88.20
68235;DHT22;55052;52.056;5.296;2023-04-21T05:09:44;10.10;88.20
68235;DHT22;55052;52.056;5.296;2023-04-21T05:12:11;10.20;88.20
68235;DHT22;55052;52.056;5.296;2023-04-21T05:14:38;10.10;88.30
68235;DHT22;55052;52.056;5.296;2023-04-21T05:17:05;10.20;88.40
68235;DHT22;55052;52.056;5.296;2023-04-21T05:19:34;10.20;88.40
68235;DHT22;55052;52.056;5.296;2023-04-21T05:22:02;10.20;88.40
68235;DHT22;55052;52.056;5.296;2023-04-21T05:24:34;10.20;88.80
68235;DHT22;55052;52.056;5.296;2023-04-21T05:27:02;10.20;88.60
68235;DHT22;55052;52.056;5.296;2023-04-21T05:29:29;10.10;88.70
68235;DHT22;55052;52.056;5.296;2023-04-21T05:31:56;10.20;88.80
68235;DHT22;55052;52.056;5.296;2023-04-21T05:34:23;10.20;88.90
68235;DHT22;55052;52.056;5.296;2023-04-21T05:36:50;10.20;89.00
68235;DHT22;55052;52.056;5.296;2023-04-21T05:39:17;10.20;89.10
68235;DHT22;55052;52.056;5.296;2023-04-21T05:41:44;10.20;89.20
68235;DHT22;55052;52.056;5.296;2023-04-21T05:44:11;10.20;89.30
68235;DHT22;55052;52.056;5.296;2023-04-21T05:46:38;10.20;89.40
68235;DHT22;55052;52.056;5.296;2023-04-21T05:49:05;10.30;89.50
68235;DHT22;55052;52.056;5.296;2023-04-21T05:51:32;10.30;89.60
68235;DHT22;55052;52.056;5.296;2023-04-21T05:53:59;10.30;89.60
68235;DHT22;55052;52.056;5.296;2023-04-21T05:56:25;10.40;90.00
68235;DHT22;55052;52.056;5.296;2023-04-21T05:58:52;10.40;90.10
68235;DHT22;55052;52.056;5.296;2023-04-21T06:01:19;10.40;90.10
68235;DHT22;55052;52.056;5.296;2023-04-21T06:03:46;10.40;90.20
68235;DHT22;55052;52.056;5.296;2023-04-21T06:06:16;10.40;90.20
68235;DHT22;55052;52.056;5.296;2023-04-21T06:08:43;10.40;90.20
68235;DHT22;55052;52.056;5.296;2023-04-21T06:11:10;10.50;90.20
68235;DHT22;55052;52.056;5.296;2023-04-21T06:13:37;10.50;90.30
68235;DHT22;55052;52.056;5.296;2023-04-21T06:16:06;10.50;90.30
68235;DHT22;55052;52.056;5.296;2023-04-21T06:18:33;10.50;90.30
68235;DHT22;55052;52.056;5.296;2023-04-21T06:21:00;10.60;90.40
68235;DHT22;55052;52.056;5.296;2023-04-21T06:23:27;10.60;90.40
68235;DHT22;55052;52.056;5.296;2023-04-21T06:26:03;10.60;90.50
68235;DHT22;55052;52.056;5.296;2023-04-21T06:28:31;10.70;90.50
68235;DHT22;55052;52.056;5.296;2023-04-21T06:30:59;10.70;90.50
68235;DHT22;55052;52.056;5.296;2023-04-21T06:33:27;10.70;90.60
68235;DHT22;55052;52.056;5.296;2023-04-21T06:35:55;10.80;90.60
68235;DHT22;55052;52.056;5.296;2023-04-21T06:38:22;10.80;90.60
68235;DHT22;55052;52.056;5.296;2023-04-21T06:40:49;10.80;90.70
68235;DHT22;55052;52.056;5.296;2023-04-21T06:43:16;10.90;90.70
68235;DHT22;55052;52.056;5.296;2023-04-21T06:45:43;10.90;90.70
68235;DHT22;55052;52.056;5.296;2023-04-21T06:48:10;11.00;90.80
68235;DHT22;55052;52.056;5.296;2023-04-21T06:50:37;11.00;90.80
68235;DHT22;55052;52.056;5.296;2023-04-21T06:53:04;11.00;90.80
68235;DHT22;55052;52.056;5.296;2023-04-21T06:55:31;11.10;90.90
68235;DHT22;55052;52.056;5.296;2023-04-21T06:57:58;11.10;90.90
68235;DHT22;55052;52.056;5.296;2023-04-21T07:00:24;11.20;91.00
68235;DHT22;55052;52.056;5.296;2023-04-21T07:02:51;11.30;91.00
68235;DHT22;55052;52.056;5.296;2023-04-21T07:05:18;11.30;91.00
68235;DHT22;55052;52.056;5.296;2023-04-21T07:07:45;11.40;91.10
68235;DHT22;55052;52.056;5.296;2023-04-21T07:10:12;11.40;91.10
68235;DHT22;55052;52.056;5.296;2023-04-21T07:12:45;11.50;91.10
68235;DHT22;55052;52.056;5.296;2023-04-21T07:15:12;11.60;91.10
68235;DHT22;55052;52.056;5.296;2023-04-21T07:17:38;11.60;91.10
68235;DHT22;55052;52.056;5.296;2023-04-21T07:20:06;11.70;91.10
68235;DHT22;55052;52.056;5.296;2023-04-21T07:22:33;11.70;91.10
68235;DHT22;55052;52.056;5.296;2023-04-21T07:25:05;11.80;91.20
68235;DHT22;55052;52.056;5.296;2023-04-21T07:27:32;11.90;91.20
68235;DHT22;55052;52.056;5.296;2023-04-21T07:29:59;12.00;91.40
68235;DHT22;55052;52.056;5.296;2023-04-21T07:32:26;12.00;91.20
68235;DHT22;55052;52.056;5.296;2023-04-21T07:34:53;12.10;91.20
68235;DHT22;55052;52.056;5.296;2023-04-21T07:37:20;12.10;91.30
68235;DHT22;55052;52.056;5.296;2023-04-21T07:39:48;12.20;91.30
68235;DHT22;55052;52.056;5.296;2023-04-21T07:42:15;12.20;91.30
68235;DHT22;55052;52.056;5.296;2023-04-21T07:44:42;12.30;91.30
68235;DHT22;55052;52.056;5.296;2023-04-21T07:47:09;12.40;91.40
68235;DHT22;55052;52.056;5.296;2023-04-21T07:49:36;12.40;91.30
68235;DHT22;55052;52.056;5.296;2023-04-21T07:52:04;12.50;91.30
68235;DHT22;55052;52.056;5.296;2023-04-21T07:54:30;12.60;91.30
68235;DHT22;55052;52.056;5.296;2023-04-21T07:56:57;12.70;91.30
68235;DHT22;55052;52.056;5.296;2023-04-21T07:59:25;12.70;91.20
68235;DHT22;55052;52.056;5.296;2023-04-21T08:01:51;12.80;91.50
68235;DHT22;55052;52.056;5.296;2023-04-21T08:04:18;12.80;91.00
68235;DHT22;55052;52.056;5.296;2023-04-21T08:06:46;12.90;90.80
68235;DHT22;55052;52.056;5.296;2023-04-21T08:09:13;12.90;90.70
68235;DHT22;55052;52.056;5.296;2023-04-21T08:11:40;12.90;90.70
68235;DHT22;55052;52.056;5.296;2023-04-21T08:14:07;13.00;90.70
68235;DHT22;55052;52.056;5.296;2023-04-21T08:16:37;13.10;90.80
68235;DHT22;55052;52.056;5.296;2023-04-21T08:19:06;13.10;90.70
68235;DHT22;55052;52.056;5.296;2023-04-21T08:21:34;13.20;91.00
68235;DHT22;55052;52.056;5.296;2023-04-21T08:24:01;13.20;90.50
68235;DHT22;55052;52.056;5.296;2023-04-21T08:26:28;13.30;90.40
68235;DHT22;55052;52.056;5.296;2023-04-21T08:28:56;13.30;90.20
68235;DHT22;55052;52.056;5.296;2023-04-21T08:31:23;13.30;90.10
68235;DHT22;55052;52.056;5.296;2023-04-21T08:33:50;13.40;90.10
68235;DHT22;55052;52.056;5.296;2023-04-21T08:36:28;13.40;89.90
68235;DHT22;55052;52.056;5.296;2023-04-21T08:38:56;13.50;89.60
68235;DHT22;55052;52.056;5.296;2023-04-21T08:41:24;13.50;89.40
68235;DHT22;55052;52.056;5.296;2023-04-21T08:43:51;13.60;89.30
68235;DHT22;55052;52.056;5.296;2023-04-21T08:46:18;13.60;89.20
68235;DHT22;55052;52.056;5.296;2023-04-21T08:48:46;13.70;89.20
68235;DHT22;55052;52.056;5.296;2023-04-21T08:51:20;13.70;89.20
68235;DHT22;55052;52.056;5.296;2023-04-21T08:53:47;13.80;89.20
68235;DHT22;55052;52.056;5.296;2023-04-21T08:56:13;13.90;89.20
68235;DHT22;55052;52.056;5.296;2023-04-21T08:58:41;14.00;89.00
68235;DHT22;55052;52.056;5.296;2023-04-21T09:01:08;14.00;88.80
68235;DHT22;55052;52.056;5.296;2023-04-21T09:03:35;14.10;88.50
68235;DHT22;55052;52.056;5.296;2023-04-21T09:06:04;14.20;88.40
68235;DHT22;55052;52.056;5.296;2023-04-21T09:08:33;14.20;88.20
68235;DHT22;55052;52.056;5.296;2023-04-21T09:11:01;14.40;88.00
68235;DHT22;55052;52.056;5.296;2023-04-21T09:13:29;14.40;87.40
68235;DHT22;55052;52.056;5.296;2023-04-21T09:15:57;14.50;87.00
68235;DHT22;55052;52.056;5.296;2023-04-21T09:18:26;14.50;86.50
68235;DHT22;55052;52.056;5.296;2023-04-21T09:21:13;14.50;86.30
68235;DHT22;55052;52.056;5.296;2023-04-21T09:23:47;14.60;85.80
68235;DHT22;55052;52.056;5.296;2023-04-21T09:26:15;14.60;85.30
68235;DHT22;55052;52.056;5.296;2023-04-21T09:28:43;14.70;85.00
68235;DHT22;55052;52.056;5.296;2023-04-21T09:31:18;14.60;85.50
68235;DHT22;55052;52.056;5.296;2023-04-21T09:33:54;14.70;84.70
68235;DHT22;55052;52.056;5.296;2023-04-21T09:36:28;14.70;84.40
68235;DHT22;55052;52.056;5.296;2023-04-21T09:38:57;14.70;84.30
68235;DHT22;55052;52.056;5.296;2023-04-21T09:41:44;14.80;84.40
68235;DHT22;55052;52.056;5.296;2023-04-21T09:44:11;14.80;84.20
68235;DHT22;55052;52.056;5.296;2023-04-21T09:46:42;14.90;84.20
68235;DHT22;55052;52.056;5.296;2023-04-21T09:49:13;14.90;83.90
68235;DHT22;55052;52.056;5.296;2023-04-21T09:51:42;15.00;83.80
68235;DHT22;55052;52.056;5.296;2023-04-21T09:54:31;15.10;83.50
68235;DHT22;55052;52.056;5.296;2023-04-21T09:57:03;15.10;83.30
68235;DHT22;55052;52.056;5.296;2023-04-21T09:59:41;15.10;83.00
68235;DHT22;55052;52.056;5.296;2023-04-21T10:02:11;15.20;82.60
68235;DHT22;55052;52.056;5.296;2023-04-21T10:04:40;15.20;82.30
68235;DHT22;55052;52.056;5.296;2023-04-21T10:07:09;15.30;82.10
68235;DHT22;55052;52.056;5.296;2023-04-21T10:09:58;15.30;81.90
68235;DHT22;55052;52.056;5.296;2023-04-21T10:12:26;15.30;81.80
68235;DHT22;55052;52.056;5.296;2023-04-21T10:14:55;15.30;81.60
68235;DHT22;55052;52.056;5.296;2023-04-21T10:17:24;15.40;81.30
68235;DHT22;55052;52.056;5.296;2023-04-21T10:19:55;15.40;80.80
68235;DHT22;55052;52.056;5.296;2023-04-21T10:22:30;15.40;80.50
68235;DHT22;55052;52.056;5.296;2023-04-21T10:25:02;15.40;80.20
68235;DHT22;55052;52.056;5.296;2023-04-21T10:27:35;15.40;79.90
68235;DHT22;55052;52.056;5.296;2023-04-21T10:30:22;15.40;79.40
68235;DHT22;55052;52.056;5.296;2023-04-21T10:33:01;15.40;79.10
68235;DHT22;55052;52.056;5.296;2023-04-21T10:35:58;15.40;78.90
68235;DHT22;55052;52.056;5.296;2023-04-21T10:38:40;15.40;78.60
68235;DHT22;55052;52.056;5.296;2023-04-21T10:41:25;15.40;78.60
68235;DHT22;55052;52.056;5.296;2023-04-21T10:44:12;15.40;78.20
68235;DHT22;55052;52.056;5.296;2023-04-21T10:46:44;15.40;78.00
68235;DHT22;55052;52.056;5.296;2023-04-21T10:57:05;15.60;78.20
68235;DHT22;55052;52.056;5.296;2023-04-21T10:59:34;15.70;78.40
68235;DHT22;55052;52.056;5.296;2023-04-21T11:02:10;15.80;78.60
68235;DHT22;55052;52.056;5.296;2023-04-21T11:04:37;15.90;78.50
68235;DHT22;55052;52.056;5.296;2023-04-21T11:09:43;16.10;77.90
68235;DHT22;55052;52.056;5.296;2023-04-21T11:12:14;16.10;77.60
68235;DHT22;55052;52.056;5.296;2023-04-21T11:14:44;16.20;77.40
68235;DHT22;55052;52.056;5.296;2023-04-21T11:17:18;16.30;77.30
68235;DHT22;55052;52.056;5.296;2023-04-21T11:19:52;16.30;76.90
68235;DHT22;55052;52.056;5.296;2023-04-21T11:22:24;16.30;76.60
68235;DHT22;55052;52.056;5.296;2023-04-21T11:24:56;16.30;76.70
68235;DHT22;55052;52.056;5.296;2023-04-21T11:27:26;16.40;76.60
68235;DHT22;55052;52.056;5.296;2023-04-21T11:29:54;16.40;76.40
68235;DHT22;55052;52.056;5.296;2023-04-21T11:32:23;16.40;76.90
68235;DHT22;55052;52.056;5.296;2023-04-21T11:34:50;16.40;75.90
68235;DHT22;55052;52.056;5.296;2023-04-21T11:37:26;16.50;75.80
68235;DHT22;55052;52.056;5.296;2023-04-21T11:39:58;16.50;76.00
68235;DHT22;55052;52.056;5.296;2023-04-21T11:42:25;16.60;76.10
68235;DHT22;55052;52.056;5.296;2023-04-21T11:44:54;16.70;75.90
68235;DHT22;55052;52.056;5.296;2023-04-21T11:47:23;16.70;76.10
68235;DHT22;55052;52.056;5.296;2023-04-21T11:49:53;16.90;76.20
68235;DHT22;55052;52.056;5.296;2023-04-21T11:52:31;17.00;75.30
68235;DHT22;55052;52.056;5.296;2023-04-21T11:57:31;17.10;73.90
68235;DHT22;55052;52.056;5.296;2023-04-21T11:59:59;17.10;73.60
68235;DHT22;55052;52.056;5.296;2023-04-21T12:02:29;17.10;72.60
68235;DHT22;55052;52.056;5.296;2023-04-21T12:07:29;16.90;71.00
68235;DHT22;55052;52.056;5.296;2023-04-21T12:09:56;16.90;71.90
68235;DHT22;55052;52.056;5.296;2023-04-21T12:12:23;16.90;72.30
68235;DHT22;55052;52.056;5.296;2023-04-21T12:14:51;16.90;72.60
68235;DHT22;55052;52.056;5.296;2023-04-21T12:17:18;16.90;72.90
68235;DHT22;55052;52.056;5.296;2023-04-21T12:19:45;16.90;73.00
68235;DHT22;55052;52.056;5.296;2023-04-21T12:22:16;17.00;73.10
68235;DHT22;55052;52.056;5.296;2023-04-21T12:24:44;17.00;73.40
68235;DHT22;55052;52.056;5.296;2023-04-21T12:27:12;17.00;73.20
68235;DHT22;55052;52.056;5.296;2023-04-21T12:29:40;17.10;73.20
68235;DHT22;55052;52.056;5.296;2023-04-21T12:32:08;17.10;73.20
68235;DHT22;55052;52.056;5.296;2023-04-21T12:34:35;17.20;72.70
68235;DHT22;55052;52.056;5.296;2023-04-21T12:37:02;17.20;72.40
68235;DHT22;55052;52.056;5.296;2023-04-21T12:39:30;17.30;72.40
68235;DHT22;55052;52.056;5.296;2023-04-21T12:41:57;17.40;72.20
68235;DHT22;55052;52.056;5.296;2023-04-21T12:44:25;17.40;71.90
68235;DHT22;55052;52.056;5.296;2023-04-21T12:46:52;17.60;71.80
68235;DHT22;55052;52.056;5.296;2023-04-21T12:49:19;17.60;71.60
68235;DHT22;55052;52.056;5.296;2023-04-21T12:51:47;17.70;71.50
68235;DHT22;55052;52.056;5.296;2023-04-21T12:54:14;17.70;71.00
68235;DHT22;55052;52.056;5.296;2023-04-21T12:56:42;17.70;70.60
68235;DHT22;55052;52.056;5.296;2023-04-21T12:59:10;17.70;70.30
68235;DHT22;55052;52.056;5.296;2023-04-21T13:01:38;17.70;69.90
68235;DHT22;55052;52.056;5.296;2023-04-21T13:04:06;17.60;69.50
68235;DHT22;55052;52.056;5.296;2023-04-21T13:06:33;17.60;69.40
68235;DHT22;55052;52.056;5.296;2023-04-21T13:09:01;17.50;69.10
68235;DHT22;55052;52.056;5.296;2023-04-21T13:11:28;17.50;69.20
68235;DHT22;55052;52.056;5.296;2023-04-21T13:13:55;17.50;69.50
68235;DHT22;55052;52.056;5.296;2023-04-21T13:16:22;17.40;69.70
68235;DHT22;55052;52.056;5.296;2023-04-21T13:18:49;17.50;70.30
68235;DHT22;55052;52.056;5.296;2023-04-21T13:21:16;17.50;70.50
68235;DHT22;55052;52.056;5.296;2023-04-21T13:23:43;17.60;70.60
68235;DHT22;55052;52.056;5.296;2023-04-21T13:26:10;17.80;70.80
68235;DHT22;55052;52.056;5.296;2023-04-21T13:28:37;17.90;70.50
68235;DHT22;55052;52.056;5.296;2023-04-21T13:31:04;18.00;71.20
68235;DHT22;55052;52.056;5.296;2023-04-21T13:33:32;18.20;70.30
68235;DHT22;55052;52.056;5.296;2023-04-21T13:36:01;18.30;70.00
68235;DHT22;55052;52.056;5.296;2023-04-21T13:38:29;18.40;69.50
68235;DHT22;55052;52.056;5.296;2023-04-21T13:40:56;18.40;69.20
68235;DHT22;55052;52.056;5.296;2023-04-21T13:43:23;18.40;68.80
68235;DHT22;55052;52.056;5.296;2023-04-21T13:45:50;18.40;69.00
68235;DHT22;55052;52.056;5.296;2023-04-21T13:48:19;18.50;68.50
68235;DHT22;55052;52.056;5.296;2023-04-21T13:50:47;18.60;68.20
68235;DHT22;55052;52.056;5.296;2023-04-21T13:53:14;18.70;68.20
68235;DHT22;55052;52.056;5.296;2023-04-21T13:55:47;18.70;68.10
68235;DHT22;55052;52.056;5.296;2023-04-21T13:58:14;18.70;68.00
68235;DHT22;55052;52.056;5.296;2023-04-21T14:00:42;18.70;67.80
68235;DHT22;55052;52.056;5.296;2023-04-21T14:03:09;18.60;68.20
68235;DHT22;55052;52.056;5.296;2023-04-21T14:05:38;18.70;68.90
68235;DHT22;55052;52.056;5.296;2023-04-21T14:08:05;18.90;68.70
68235;DHT22;55052;52.056;5.296;2023-04-21T14:10:32;19.00;68.50
68235;DHT22;55052;52.056;5.296;2023-04-21T14:12:59;19.20;69.00
68235;DHT22;55052;52.056;5.296;2023-04-21T14:15:26;19.50;69.50
68235;DHT22;55052;52.056;5.296;2023-04-21T14:17:53;19.70;68.70
68235;DHT22;55052;52.056;5.296;2023-04-21T14:20:21;19.80;67.70
68235;DHT22;55052;52.056;5.296;2023-04-21T14:22:48;19.90;67.10
68235;DHT22;55052;52.056;5.296;2023-04-21T14:25:15;19.80;66.40
68235;DHT22;55052;52.056;5.296;2023-04-21T14:27:41;19.80;66.40
68235;DHT22;55052;52.056;5.296;2023-04-21T14:30:09;19.70;66.10
68235;DHT22;55052;52.056;5.296;2023-04-21T14:32:36;19.60;65.60
68235;DHT22;55052;52.056;5.296;2023-04-21T14:35:04;19.40;64.50
68235;DHT22;55052;52.056;5.296;2023-04-21T14:37:31;19.30;64.10
68235;DHT22;55052;52.056;5.296;2023-04-21T14:39:58;19.10;64.00
68235;DHT22;55052;52.056;5.296;2023-04-21T14:42:25;19.00;64.30
68235;DHT22;55052;52.056;5.296;2023-04-21T14:44:52;18.90;64.90
68235;DHT22;55052;52.056;5.296;2023-04-21T14:47:20;18.80;65.40
68235;DHT22;55052;52.056;5.296;2023-04-21T14:49:47;18.70;66.00
68235;DHT22;55052;52.056;5.296;2023-04-21T14:52:20;18.70;66.00
68235;DHT22;55052;52.056;5.296;2023-04-21T14:54:50;18.70;66.40
68235;DHT22;55052;52.056;5.296;2023-04-21T14:57:17;18.90;66.80
68235;DHT22;55052;52.056;5.296;2023-04-21T14:59:50;19.10;67.40
68235;DHT22;55052;52.056;5.296;2023-04-21T15:02:21;19.20;66.80
68235;DHT22;55052;52.056;5.296;2023-04-21T15:04:48;19.40;67.00
68235;DHT22;55052;52.056;5.296;2023-04-21T15:07:15;19.50;66.30
68235;DHT22;55052;52.056;5.296;2023-04-21T15:09:49;19.60;65.80
68235;DHT22;55052;52.056;5.296;2023-04-21T15:12:16;19.70;65.30
68235;DHT22;55052;52.056;5.296;2023-04-21T15:14:43;19.80;65.40
68235;DHT22;55052;52.056;5.296;2023-04-21T15:17:10;20.00;65.40
68235;DHT22;55052;52.056;5.296;2023-04-21T15:19:37;20.10;64.20
68235;DHT22;55052;52.056;5.296;2023-04-21T15:22:04;20.20;64.00
68235;DHT22;55052;52.056;5.296;2023-04-21T15:24:31;20.20;64.20
68235;DHT22;55052;52.056;5.296;2023-04-21T15:26:58;20.30;63.70
68235;DHT22;55052;52.056;5.296;2023-04-21T15:29:25;20.30;63.90
68235;DHT22;55052;52.056;5.296;2023-04-21T15:31:51;20.30;63.80
68235;DHT22;55052;52.056;5.296;2023-04-21T15:34:18;20.40;63.10
68235;DHT22;55052;52.056;5.296;2023-04-21T15:36:45;20.40;62.00
68235;DHT22;55052;52.056;5.296;2023-04-21T15:39:12;20.30;61.60
68235;DHT22;55052;52.056;5.296;2023-04-21T15:41:42;20.30;61.60
68235;DHT22;55052;52.056;5.296;2023-04-21T15:44:09;20.10;61.40
68235;DHT22;55052;52.056;5.296;2023-04-21T15:46:36;20.10;61.30
68235;DHT22;55052;52.056;5.296;2023-04-21T15:49:03;20.00;61.70
68235;DHT22;55052;52.056;5.296;2023-04-21T15:51:30;19.90;62.00